sensor_id;sensor_type;location;lat;lon;timestamp;P1;durP1;ratioP1;P2;durP2;ratioP2
4186;SDS011;2107;52.306;10.484;2022-07-05T00:00:57;1.00;;;1.00;;
4186;SDS011;2107;52.306;10.484;2022-07-05T00:03:24;1.00;;;1.00;;
4186;SDS011;2107;52.306;10.484;2022-07-05T00:05:52;0.90;;;0.90;;
4186;SDS011;2107;52.306;10.484;2022-07-05T00:08:19;1.10;;;1.10;;
4186;SDS011;2107;52.306;10.484;2022-07-05T00:10:46;1.10;;;1.10;;
4186;SDS011;2107;52.306;10.484;2022-07-05T00:13:13;1.10;;;1.10;;
4186;SDS011;2107;52.306;10.484;2022-07-05T00:15:42;1.00;;;1.00;;
4186;SDS011;2107;52.306;10.484;2022-07-05T00:18:09;0.90;;;0.90;;
4186;SDS011;2107;52.306;10.484;2022-07-05T00:20:36;1.60;;;1.60;;
4186;SDS011;2107;52.306;10.484;2022-07-05T00:23:03;1.00;;;1.00;;
4186;SDS011;2107;52.306;10.484;2022-07-05T00:25:30;1.13;;;1.13;;
4186;SDS011;2107;52.306;10.484;2022-07-05T00:27:57;1.00;;;1.00;;
4186;SDS011;2107;52.306;10.484;2022-07-05T00:30:24;0.90;;;0.90;;
4186;SDS011;2107;52.306;10.484;2022-07-05T00:32:52;0.80;;;0.80;;
4186;SDS011;2107;52.306;10.484;2022-07-05T00:35:19;0.80;;;0.80;;
4186;SDS011;2107;52.306;10.484;2022-07-05T00:37:46;0.80;;;0.80;;
4186;SDS011;2107;52.306;10.484;2022-07-05T00:40:13;0.80;;;0.80;;
4186;SDS011;2107;52.306;10.484;2022-07-05T00:42:39;0.80;;;0.80;;
4186;SDS011;2107;52.306;10.484;2022-07-05T00:45:07;0.70;;;0.70;;
4186;SDS011;2107;52.306;10.484;2022-07-05T00:47:35;1.10;;;1.10;;
4186;SDS011;2107;52.306;10.484;2022-07-05T00:50:03;1.30;;;1.30;;
4186;SDS011;2107;52.306;10.484;2022-07-05T00:52:31;0.80;;;0.80;;
4186;SDS011;2107;52.306;10.484;2022-07-05T00:54:58;0.80;;;0.80;;
4186;SDS011;2107;52.306;10.484;2022-07-05T00:57:25;0.50;;;0.50;;
4186;SDS011;2107;52.306;10.484;2022-07-05T00:59:52;0.80;;;0.80;;
4186;SDS011;2107;52.306;10.484;2022-07-05T01:02:19;0.70;;;0.70;;
4186;SDS011;2107;52.306;10.484;2022-07-05T01:04:48;0.80;;;0.80;;
4186;SDS011;2107;52.306;10.484;2022-07-05T01:07:19;0.70;;;0.70;;
4186;SDS011;2107;52.306;10.484;2022-07-05T01:09:48;0.43;;;0.43;;
4186;SDS011;2107;52.306;10.484;2022-07-05T01:12:14;0.40;;;0.40;;
4186;SDS011;2107;52.306;10.484;2022-07-05T01:14:42;0.30;;;0.30;;
4186;SDS011;2107;52.306;10.484;2022-07-05T01:17:10;0.30;;;0.30;;
4186;SDS011;2107;52.306;10.484;2022-07-05T01:19:37;0.30;;;0.30;;
4186;SDS011;2107;52.306;10.484;2022-07-05T01:22:04;0.30;;;0.30;;
4186;SDS011;2107;52.306;10.484;2022-07-05T01:24:39;0.20;;;0.20;;
4186;SDS011;2107;52.306;10.484;2022-07-05T01:27:07;0.30;;;0.30;;
4186;SDS011;2107;52.306;10.484;2022-07-05T01:29:35;0.20;;;0.20;;
4186;SDS011;2107;52.306;10.484;2022-07-05T01:32:02;0.30;;;0.30;;
4186;SDS011;2107;52.306;10.484;2022-07-05T01:34:29;0.20;;;0.20;;
4186;SDS011;2107;52.306;10.484;2022-07-05T01:36:56;0.20;;;0.20;;
4186;SDS011;2107;52.306;10.484;2022-07-05T01:39:23;0.20;;;0.20;;
4186;SDS011;2107;52.306;10.484;2022-07-05T01:41:51;0.20;;;0.20;;
4186;SDS011;2107;52.306;10.484;2022-07-05T01:44:18;0.20;;;0.20;;
4186;SDS011;2107;52.306;10.484;2022-07-05T01:46:45;0.20;;;0.20;;
4186;SDS011;2107;52.306;10.484;2022-07-05T01:49:17;0.20;;;0.20;;
4186;SDS011;2107;52.306;10.484;2022-07-05T01:51:47;0.20;;;0.20;;
4186;SDS011;2107;52.306;10.484;2022-07-05T01:54:18;0.20;;;0.20;;
4186;SDS011;2107;52.306;10.484;2022-07-05T01:56:45;0.10;;;0.10;;
4186;SDS011;2107;52.306;10.484;2022-07-05T01:59:13;0.10;;;0.10;;
4186;SDS011;2107;52.306;10.484;2022-07-05T02:01:40;0.20;;;0.20;;
4186;SDS011;2107;52.306;10.484;2022-07-05T02:04:08;0.20;;;0.20;;
4186;SDS011;2107;52.306;10.484;2022-07-05T02:06:36;0.10;;;0.10;;
4186;SDS011;2107;52.306;10.484;2022-07-05T02:09:03;0.10;;;0.10;;
4186;SDS011;2107;52.306;10.484;2022-07-05T02:11:32;0.10;;;0.10;;
4186;SDS011;2107;52.306;10.484;2022-07-05T02:13:59;0.10;;;0.10;;
4186;SDS011;2107;52.306;10.484;2022-07-05T02:16:28;0.10;;;0.10;;
4186;SDS011;2107;52.306;10.484;2022-07-05T02:18:55;0.10;;;0.10;;
4186;SDS011;2107;52.306;10.484;2022-07-05T02:21:22;0.10;;;0.10;;
4186;SDS011;2107;52.306;10.484;2022-07-05T02:23:49;0.00;;;0.00;;
4186;SDS011;2107;52.306;10.484;2022-07-05T02:26:16;0.10;;;0.10;;
4186;SDS011;2107;52.306;10.484;2022-07-05T02:28:43;0.00;;;0.00;;
4186;SDS011;2107;52.306;10.484;2022-07-05T02:31:10;0.10;;;0.10;;
4186;SDS011;2107;52.306;10.484;2022-07-05T02:33:39;0.03;;;0.03;;
4186;SDS011;2107;52.306;10.484;2022-07-05T02:36:06;0.10;;;0.10;;
4186;SDS011;2107;52.306;10.484;2022-07-05T02:38:35;0.00;;;0.00;;
4186;SDS011;2107;52.306;10.484;2022-07-05T02:41:03;0.10;;;0.10;;
4186;SDS011;2107;52.306;10.484;2022-07-05T02:43:31;0.10;;;0.10;;
4186;SDS011;2107;52.306;10.484;2022-07-05T02:45:59;0.10;;;0.10;;
4186;SDS011;2107;52.306;10.484;2022-07-05T02:48:27;0.00;;;0.00;;
4186;SDS011;2107;52.306;10.484;2022-07-05T02:50:55;0.10;;;0.10;;
4186;SDS011;2107;52.306;10.484;2022-07-05T02:53:22;0.10;;;0.10;;
4186;SDS011;2107;52.306;10.484;2022-07-05T02:55:50;0.10;;;0.10;;
4186;SDS011;2107;52.306;10.484;2022-07-05T02:58:17;0.10;;;0.10;;
4186;SDS011;2107;52.306;10.484;2022-07-05T03:00:44;0.10;;;0.10;;
4186;SDS011;2107;52.306;10.484;2022-07-05T03:03:12;0.10;;;0.10;;
4186;SDS011;2107;52.306;10.484;2022-07-05T03:05:39;0.10;;;0.10;;
4186;SDS011;2107;52.306;10.484;2022-07-05T03:08:07;0.00;;;0.00;;
4186;SDS011;2107;52.306;10.484;2022-07-05T03:10:34;0.10;;;0.10;;
4186;SDS011;2107;52.306;10.484;2022-07-05T03:13:02;0.10;;;0.10;;
4186;SDS011;2107;52.306;10.484;2022-07-05T03:15:28;0.10;;;0.10;;
4186;SDS011;2107;52.306;10.484;2022-07-05T03:17:55;0.10;;;0.10;;
4186;SDS011;2107;52.306;10.484;2022-07-05T03:20:22;0.10;;;0.10;;
4186;SDS011;2107;52.306;10.484;2022-07-05T03:22:49;0.00;;;0.00;;
4186;SDS011;2107;52.306;10.484;2022-07-05T03:25:18;0.00;;;0.00;;
4186;SDS011;2107;52.306;10.484;2022-07-05T03:27:45;0.00;;;0.00;;
4186;SDS011;2107;52.306;10.484;2022-07-05T03:30:12;0.00;;;0.00;;
4186;SDS011;2107;52.306;10.484;2022-07-05T03:32:39;0.00;;;0.00;;
4186;SDS011;2107;52.306;10.484;2022-07-05T03:35:06;0.10;;;0.10;;
4186;SDS011;2107;52.306;10.484;2022-07-05T03:37:34;0.00;;;0.00;;
4186;SDS011;2107;52.306;10.484;2022-07-05T03:40:01;0.00;;;0.00;;
4186;SDS011;2107;52.306;10.484;2022-07-05T03:42:30;0.10;;;0.10;;
4186;SDS011;2107;52.306;10.484;2022-07-05T03:44:57;0.00;;;0.00;;
4186;SDS011;2107;52.306;10.484;2022-07-05T03:47:24;0.10;;;0.10;;
4186;SDS011;2107;52.306;10.484;2022-07-05T03:49:51;0.10;;;0.10;;
4186;SDS011;2107;52.306;10.484;2022-07-05T03:52:18;0.00;;;0.00;;
4186;SDS011;2107;52.306;10.484;2022-07-05T03:54:44;0.00;;;0.00;;
4186;SDS011;2107;52.306;10.484;2022-07-05T03:57:12;0.00;;;0.00;;
4186;SDS011;2107;52.306;10.484;2022-07-05T03:59:40;0.00;;;0.00;;
4186;SDS011;2107;52.306;10.484;2022-07-05T04:02:07;0.00;;;0.00;;
4186;SDS011;2107;52.306;10.484;2022-07-05T04:04:34;0.00;;;0.00;;
4186;SDS011;2107;52.306;10.484;2022-07-05T04:07:01;0.00;;;0.00;;
4186;SDS011;2107;52.306;10.484;2022-07-05T04:09:28;0.10;;;0.10;;
4186;SDS011;2107;52.306;10.484;2022-07-05T04:11:55;0.10;;;0.10;;
4186;SDS011;2107;52.306;10.484;2022-07-05T04:14:21;0.10;;;0.10;;
4186;SDS011;2107;52.306;10.484;2022-07-05T04:16:50;0.00;;;0.00;;
4186;SDS011;2107;52.306;10.484;2022-07-05T04:19:17;0.10;;;0.10;;
4186;SDS011;2107;52.306;10.484;2022-07-05T04:21:43;0.10;;;0.10;;
4186;SDS011;2107;52.306;10.484;2022-07-05T04:24:10;0.10;;;0.10;;
4186;SDS011;2107;52.306;10.484;2022-07-05T04:26:37;0.10;;;0.10;;
4186;SDS011;2107;52.306;10.484;2022-07-05T04:29:04;0.30;;;0.30;;
4186;SDS011;2107;52.306;10.484;2022-07-05T04:31:31;0.20;;;0.20;;
4186;SDS011;2107;52.306;10.484;2022-07-05T04:34:01;0.20;;;0.20;;
4186;SDS011;2107;52.306;10.484;2022-07-05T04:36:28;0.30;;;0.30;;
4186;SDS011;2107;52.306;10.484;2022-07-05T04:38:55;0.53;;;0.53;;
4186;SDS011;2107;52.306;10.484;2022-07-05T04:41:22;1.40;;;1.40;;
4186;SDS011;2107;52.306;10.484;2022-07-05T04:43:49;1.80;;;1.80;;
4186;SDS011;2107;52.306;10.484;2022-07-05T04:46:16;2.40;;;2.40;;
4186;SDS011;2107;52.306;10.484;2022-07-05T04:48:43;3.40;;;3.40;;
4186;SDS011;2107;52.306;10.484;2022-07-05T04:51:11;3.40;;;3.40;;
4186;SDS011;2107;52.306;10.484;2022-07-05T04:53:38;3.40;;;3.40;;
4186;SDS011;2107;52.306;10.484;2022-07-05T04:56:05;3.10;;;3.10;;
4186;SDS011;2107;52.306;10.484;2022-07-05T04:58:32;3.10;;;3.10;;
4186;SDS011;2107;52.306;10.484;2022-07-05T05:00:59;3.23;;;3.23;;
4186;SDS011;2107;52.306;10.484;2022-07-05T05:03:26;2.53;;;2.53;;
4186;SDS011;2107;52.306;10.484;2022-07-05T05:05:53;2.27;;;2.27;;
4186;SDS011;2107;52.306;10.484;2022-07-05T05:08:21;2.17;;;2.17;;
4186;SDS011;2107;52.306;10.484;2022-07-05T05:10:48;1.50;;;1.50;;
4186;SDS011;2107;52.306;10.484;2022-07-05T05:13:16;1.70;;;1.70;;
4186;SDS011;2107;52.306;10.484;2022-07-05T05:15:43;1.20;;;1.20;;
4186;SDS011;2107;52.306;10.484;2022-07-05T05:18:10;1.23;;;1.23;;
4186;SDS011;2107;52.306;10.484;2022-07-05T05:20:38;1.20;;;1.20;;
4186;SDS011;2107;52.306;10.484;2022-07-05T05:23:05;1.20;;;1.20;;
4186;SDS011;2107;52.306;10.484;2022-07-05T05:25:33;1.30;;;1.30;;
4186;SDS011;2107;52.306;10.484;2022-07-05T05:28:01;1.10;;;1.10;;
4186;SDS011;2107;52.306;10.484;2022-07-05T05:30:29;0.90;;;0.90;;
4186;SDS011;2107;52.306;10.484;2022-07-05T05:32:56;1.10;;;1.10;;
4186;SDS011;2107;52.306;10.484;2022-07-05T05:35:23;0.90;;;0.90;;
4186;SDS011;2107;52.306;10.484;2022-07-05T05:37:50;0.90;;;0.90;;
4186;SDS011;2107;52.306;10.484;2022-07-05T05:40:18;1.20;;;1.20;;
4186;SDS011;2107;52.306;10.484;2022-07-05T05:42:47;1.00;;;1.00;;
4186;SDS011;2107;52.306;10.484;2022-07-05T05:45:14;1.00;;;1.00;;
4186;SDS011;2107;52.306;10.484;2022-07-05T05:47:43;1.10;;;1.10;;
4186;SDS011;2107;52.306;10.484;2022-07-05T05:50:13;0.90;;;0.90;;
4186;SDS011;2107;52.306;10.484;2022-07-05T05:52:43;1.20;;;1.20;;
4186;SDS011;2107;52.306;10.484;2022-07-05T05:55:10;1.20;;;1.20;;
4186;SDS011;2107;52.306;10.484;2022-07-05T05:57:37;1.00;;;1.00;;
4186;SDS011;2107;52.306;10.484;2022-07-05T06:00:07;1.60;;;1.60;;
4186;SDS011;2107;52.306;10.484;2022-07-05T06:02:35;1.27;;;1.27;;
4186;SDS011;2107;52.306;10.484;2022-07-05T06:05:02;1.13;;;1.13;;
4186;SDS011;2107;52.306;10.484;2022-07-05T06:07:29;1.27;;;1.27;;
4186;SDS011;2107;52.306;10.484;2022-07-05T06:09:57;1.20;;;1.20;;
4186;SDS011;2107;52.306;10.484;2022-07-05T06:12:24;1.10;;;1.10;;
4186;SDS011;2107;52.306;10.484;2022-07-05T06:14:51;1.00;;;1.00;;
4186;SDS011;2107;52.306;10.484;2022-07-05T06:17:19;1.10;;;1.10;;
4186;SDS011;2107;52.306;10.484;2022-07-05T06:19:46;1.00;;;1.00;;
4186;SDS011;2107;52.306;10.484;2022-07-05T06:22:13;1.00;;;1.00;;
4186;SDS011;2107;52.306;10.484;2022-07-05T06:24:40;1.00;;;1.00;;
4186;SDS011;2107;52.306;10.484;2022-07-05T06:27:07;1.20;;;1.20;;
4186;SDS011;2107;52.306;10.484;2022-07-05T06:29:34;1.10;;;1.10;;
4186;SDS011;2107;52.306;10.484;2022-07-05T06:32:01;1.20;;;1.20;;
4186;SDS011;2107;52.306;10.484;2022-07-05T06:34:30;1.40;;;1.40;;
4186;SDS011;2107;52.306;10.484;2022-07-05T06:36:56;1.40;;;1.40;;
4186;SDS011;2107;52.306;10.484;2022-07-05T06:39:23;1.40;;;1.40;;
4186;SDS011;2107;52.306;10.484;2022-07-05T06:41:50;1.90;;;1.90;;
4186;SDS011;2107;52.306;10.484;2022-07-05T06:44:17;1.10;;;1.10;;
4186;SDS011;2107;52.306;10.484;2022-07-05T06:46:44;1.00;;;1.00;;
4186;SDS011;2107;52.306;10.484;2022-07-05T06:49:11;1.00;;;1.00;;
4186;SDS011;2107;52.306;10.484;2022-07-05T06:51:39;1.20;;;1.20;;
4186;SDS011;2107;52.306;10.484;2022-07-05T06:54:06;1.00;;;1.00;;
4186;SDS011;2107;52.306;10.484;2022-07-05T06:56:33;1.10;;;1.10;;
4186;SDS011;2107;52.306;10.484;2022-07-05T06:59:00;1.00;;;1.00;;
4186;SDS011;2107;52.306;10.484;2022-07-05T07:01:27;1.20;;;1.20;;
4186;SDS011;2107;52.306;10.484;2022-07-05T07:03:54;1.13;;;1.13;;
4186;SDS011;2107;52.306;10.484;2022-07-05T07:06:21;1.40;;;1.40;;
4186;SDS011;2107;52.306;10.484;2022-07-05T07:08:50;1.00;;;1.00;;
4186;SDS011;2107;52.306;10.484;2022-07-05T07:11:36;1.53;;;1.53;;
4186;SDS011;2107;52.306;10.484;2022-07-05T07:14:03;0.90;;;0.90;;
4186;SDS011;2107;52.306;10.484;2022-07-05T07:16:30;1.03;;;1.03;;
4186;SDS011;2107;52.306;10.484;2022-07-05T07:18:57;0.90;;;0.90;;
4186;SDS011;2107;52.306;10.484;2022-07-05T07:21:24;1.10;;;1.10;;
4186;SDS011;2107;52.306;10.484;2022-07-05T07:23:53;1.20;;;1.20;;
4186;SDS011;2107;52.306;10.484;2022-07-05T07:26:20;0.90;;;0.90;;
4186;SDS011;2107;52.306;10.484;2022-07-05T07:28:46;1.20;;;1.20;;
4186;SDS011;2107;52.306;10.484;2022-07-05T07:31:13;0.80;;;0.80;;
4186;SDS011;2107;52.306;10.484;2022-07-05T07:33:40;1.00;;;1.00;;
4186;SDS011;2107;52.306;10.484;2022-07-05T07:36:07;1.00;;;1.00;;
4186;SDS011;2107;52.306;10.484;2022-07-05T07:38:35;1.30;;;1.30;;
4186;SDS011;2107;52.306;10.484;2022-07-05T07:41:03;1.40;;;1.40;;
4186;SDS011;2107;52.306;10.484;2022-07-05T07:43:30;1.30;;;1.30;;
4186;SDS011;2107;52.306;10.484;2022-07-05T07:45:57;1.10;;;1.10;;
4186;SDS011;2107;52.306;10.484;2022-07-05T07:48:23;1.00;;;1.00;;
4186;SDS011;2107;52.306;10.484;2022-07-05T07:50:51;1.40;;;1.40;;
4186;SDS011;2107;52.306;10.484;2022-07-05T07:53:17;1.20;;;1.20;;
4186;SDS011;2107;52.306;10.484;2022-07-05T07:55:44;1.20;;;1.20;;
4186;SDS011;2107;52.306;10.484;2022-07-05T07:58:13;0.80;;;0.80;;
4186;SDS011;2107;52.306;10.484;2022-07-05T08:00:40;1.10;;;1.10;;
4186;SDS011;2107;52.306;10.484;2022-07-05T08:03:06;1.10;;;1.10;;
4186;SDS011;2107;52.306;10.484;2022-07-05T08:05:33;1.20;;;1.20;;
4186;SDS011;2107;52.306;10.484;2022-07-05T08:08:00;1.37;;;1.37;;
4186;SDS011;2107;52.306;10.484;2022-07-05T08:10:28;1.27;;;1.27;;
4186;SDS011;2107;52.306;10.484;2022-07-05T08:12:54;1.70;;;1.70;;
4186;SDS011;2107;52.306;10.484;2022-07-05T08:15:23;1.63;;;1.63;;
4186;SDS011;2107;52.306;10.484;2022-07-05T08:17:50;1.30;;;1.30;;
4186;SDS011;2107;52.306;10.484;2022-07-05T08:20:34;1.40;;;1.40;;
4186;SDS011;2107;52.306;10.484;2022-07-05T08:23:20;1.70;;;1.70;;
4186;SDS011;2107;52.306;10.484;2022-07-05T08:25:48;1.60;;;1.60;;
4186;SDS011;2107;52.306;10.484;2022-07-05T08:28:15;1.80;;;1.80;;
4186;SDS011;2107;52.306;10.484;2022-07-05T08:30:43;1.40;;;1.40;;
4186;SDS011;2107;52.306;10.484;2022-07-05T08:33:10;1.43;;;1.43;;
4186;SDS011;2107;52.306;10.484;2022-07-05T08:35:37;1.50;;;1.50;;
4186;SDS011;2107;52.306;10.484;2022-07-05T08:38:03;1.30;;;1.30;;
4186;SDS011;2107;52.306;10.484;2022-07-05T08:40:30;1.70;;;1.70;;
4186;SDS011;2107;52.306;10.484;2022-07-05T08:43:03;1.60;;;1.60;;
4186;SDS011;2107;52.306;10.484;2022-07-05T08:45:32;1.10;;;1.10;;
4186;SDS011;2107;52.306;10.484;2022-07-05T08:48:01;1.60;;;1.60;;
4186;SDS011;2107;52.306;10.484;2022-07-05T08:50:30;1.50;;;1.50;;
4186;SDS011;2107;52.306;10.484;2022-07-05T08:52:59;1.27;;;1.27;;
4186;SDS011;2107;52.306;10.484;2022-07-05T08:55:27;1.20;;;1.20;;
4186;SDS011;2107;52.306;10.484;2022-07-05T08:57:54;1.50;;;1.50;;
4186;SDS011;2107;52.306;10.484;2022-07-05T09:00:21;1.40;;;1.40;;
4186;SDS011;2107;52.306;10.484;2022-07-05T09:02:48;1.50;;;1.50;;
4186;SDS011;2107;52.306;10.484;2022-07-05T09:05:19;1.50;;;1.50;;
4186;SDS011;2107;52.306;10.484;2022-07-05T09:07:48;1.20;;;1.20;;
4186;SDS011;2107;52.306;10.484;2022-07-05T09:10:23;1.60;;;1.60;;
4186;SDS011;2107;52.306;10.484;2022-07-05T09:12:52;1.20;;;1.20;;
4186;SDS011;2107;52.306;10.484;2022-07-05T09:15:20;1.20;;;1.20;;
4186;SDS011;2107;52.306;10.484;2022-07-05T09:17:48;1.07;;;1.07;;
4186;SDS011;2107;52.306;10.484;2022-07-05T09:20:15;1.10;;;1.10;;
4186;SDS011;2107;52.306;10.484;2022-07-05T09:22:45;1.40;;;1.40;;
4186;SDS011;2107;52.306;10.484;2022-07-05T09:25:14;1.07;;;1.07;;
4186;SDS011;2107;52.306;10.484;2022-07-05T09:27:53;1.30;;;1.30;;
4186;SDS011;2107;52.306;10.484;2022-07-05T09:30:28;1.40;;;1.40;;
4186;SDS011;2107;52.306;10.484;2022-07-05T09:33:00;1.60;;;1.60;;
4186;SDS011;2107;52.306;10.484;2022-07-05T09:35:29;1.40;;;1.40;;
4186;SDS011;2107;52.306;10.484;2022-07-05T09:37:57;1.20;;;1.20;;
4186;SDS011;2107;52.306;10.484;2022-07-05T09:40:24;1.50;;;1.50;;
4186;SDS011;2107;52.306;10.484;2022-07-05T09:42:51;1.17;;;1.17;;
4186;SDS011;2107;52.306;10.484;2022-07-05T09:45:21;1.20;;;1.20;;
4186;SDS011;2107;52.306;10.484;2022-07-05T09:47:49;1.20;;;1.20;;
4186;SDS011;2107;52.306;10.484;2022-07-05T09:53:03;1.23;;;1.23;;
4186;SDS011;2107;52.306;10.484;2022-07-05T09:55:30;1.60;;;1.60;;
4186;SDS011;2107;52.306;10.484;2022-07-05T09:57:58;1.30;;;1.30;;
4186;SDS011;2107;52.306;10.484;2022-07-05T10:00:25;1.50;;;1.50;;
4186;SDS011;2107;52.306;10.484;2022-07-05T10:02:53;1.33;;;1.33;;
4186;SDS011;2107;52.306;10.484;2022-07-05T10:05:26;1.70;;;1.70;;
4186;SDS011;2107;52.306;10.484;2022-07-05T10:07:55;1.27;;;1.27;;
4186;SDS011;2107;52.306;10.484;2022-07-05T10:10:24;1.23;;;1.23;;
4186;SDS011;2107;52.306;10.484;2022-07-05T10:12:52;1.30;;;1.30;;
4186;SDS011;2107;52.306;10.484;2022-07-05T10:15:21;1.40;;;1.40;;
4186;SDS011;2107;52.306;10.484;2022-07-05T10:17:52;1.10;;;1.10;;
4186;SDS011;2107;52.306;10.484;2022-07-05T10:20:23;1.40;;;1.40;;
4186;SDS011;2107;52.306;10.484;2022-07-05T10:22:53;1.00;;;1.00;;
4186;SDS011;2107;52.306;10.484;2022-07-05T10:25:21;1.40;;;1.40;;
4186;SDS011;2107;52.306;10.484;2022-07-05T10:27:51;1.20;;;1.20;;
4186;SDS011;2107;52.306;10.484;2022-07-05T10:30:19;1.20;;;1.20;;
4186;SDS011;2107;52.306;10.484;2022-07-05T10:32:48;1.20;;;1.20;;
4186;SDS011;2107;52.306;10.484;2022-07-05T10:35:16;1.30;;;1.30;;
4186;SDS011;2107;52.306;10.484;2022-07-05T10:37:43;1.70;;;1.70;;
4186;SDS011;2107;52.306;10.484;2022-07-05T10:40:11;1.30;;;1.30;;
4186;SDS011;2107;52.306;10.484;2022-07-05T10:42:40;1.50;;;1.50;;
4186;SDS011;2107;52.306;10.484;2022-07-05T10:45:25;1.20;;;1.20;;
4186;SDS011;2107;52.306;10.484;2022-07-05T10:48:15;1.30;;;1.30;;
4186;SDS011;2107;52.306;10.484;2022-07-05T10:50:48;1.30;;;1.30;;
4186;SDS011;2107;52.306;10.484;2022-07-05T10:53:17;1.60;;;1.60;;
4186;SDS011;2107;52.306;10.484;2022-07-05T10:55:49;1.67;;;1.67;;
4186;SDS011;2107;52.306;10.484;2022-07-05T10:58:22;1.80;;;1.80;;
4186;SDS011;2107;52.306;10.484;2022-07-05T11:04:23;1.80;;;1.80;;
4186;SDS011;2107;52.306;10.484;2022-07-05T11:06:59;1.40;;;1.40;;
4186;SDS011;2107;52.306;10.484;2022-07-05T11:09:26;1.90;;;1.90;;
4186;SDS011;2107;52.306;10.484;2022-07-05T11:14:46;1.93;;;1.93;;
4186;SDS011;2107;52.306;10.484;2022-07-05T11:17:14;1.90;;;1.90;;
4186;SDS011;2107;52.306;10.484;2022-07-05T11:23:05;1.70;;;1.70;;
4186;SDS011;2107;52.306;10.484;2022-07-05T11:25:35;1.80;;;1.80;;
4186;SDS011;2107;52.306;10.484;2022-07-05T11:28:05;1.40;;;1.40;;
4186;SDS011;2107;52.306;10.484;2022-07-05T11:30:45;1.80;;;1.80;;
4186;SDS011;2107;52.306;10.484;2022-07-05T11:36:20;1.67;;;1.67;;
4186;SDS011;2107;52.306;10.484;2022-07-05T11:41:41;1.80;;;1.80;;
4186;SDS011;2107;52.306;10.484;2022-07-05T11:44:10;1.67;;;1.67;;
4186;SDS011;2107;52.306;10.484;2022-07-05T11:46:39;1.50;;;1.50;;
4186;SDS011;2107;52.306;10.484;2022-07-05T11:49:07;1.70;;;1.70;;
4186;SDS011;2107;52.306;10.484;2022-07-05T11:51:34;2.00;;;2.00;;
4186;SDS011;2107;52.306;10.484;2022-07-05T11:54:01;1.80;;;1.80;;
4186;SDS011;2107;52.306;10.484;2022-07-05T11:56:30;1.80;;;1.80;;
4186;SDS011;2107;52.306;10.484;2022-07-05T11:58:57;2.07;;;2.07;;
4186;SDS011;2107;52.306;10.484;2022-07-05T12:01:24;1.50;;;1.50;;
4186;SDS011;2107;52.306;10.484;2022-07-05T12:03:55;1.50;;;1.50;;
4186;SDS011;2107;52.306;10.484;2022-07-05T12:06:22;1.80;;;1.80;;
4186;SDS011;2107;52.306;10.484;2022-07-05T12:09:02;1.90;;;1.90;;
4186;SDS011;2107;52.306;10.484;2022-07-05T12:11:30;1.50;;;1.50;;
4186;SDS011;2107;52.306;10.484;2022-07-05T12:14:21;1.20;;;1.20;;
4186;SDS011;2107;52.306;10.484;2022-07-05T12:16:49;1.60;;;1.60;;
4186;SDS011;2107;52.306;10.484;2022-07-05T12:19:26;1.50;;;1.50;;
4186;SDS011;2107;52.306;10.484;2022-07-05T12:21:54;1.97;;;1.97;;
4186;SDS011;2107;52.306;10.484;2022-07-05T12:24:21;1.80;;;1.80;;
4186;SDS011;2107;52.306;10.484;2022-07-05T12:26:50;1.63;;;1.63;;
4186;SDS011;2107;52.306;10.484;2022-07-05T12:29:17;2.10;;;2.10;;
4186;SDS011;2107;52.306;10.484;2022-07-05T12:31:59;1.60;;;1.60;;
4186;SDS011;2107;52.306;10.484;2022-07-05T12:34:29;1.40;;;1.40;;
4186;SDS011;2107;52.306;10.484;2022-07-05T12:36:56;1.80;;;1.80;;
4186;SDS011;2107;52.306;10.484;2022-07-05T12:39:23;1.70;;;1.70;;
4186;SDS011;2107;52.306;10.484;2022-07-05T12:41:50;1.70;;;1.70;;
4186;SDS011;2107;52.306;10.484;2022-07-05T12:44:18;1.70;;;1.70;;
4186;SDS011;2107;52.306;10.484;2022-07-05T12:46:47;1.60;;;1.60;;
4186;SDS011;2107;52.306;10.484;2022-07-05T12:49:16;1.40;;;1.40;;
4186;SDS011;2107;52.306;10.484;2022-07-05T12:51:45;1.63;;;1.63;;
4186;SDS011;2107;52.306;10.484;2022-07-05T12:54:18;1.80;;;1.80;;
4186;SDS011;2107;52.306;10.484;2022-07-05T12:57:04;1.80;;;1.80;;
4186;SDS011;2107;52.306;10.484;2022-07-05T12:59:58;1.80;;;1.80;;
4186;SDS011;2107;52.306;10.484;2022-07-05T13:02:33;1.80;;;1.80;;
4186;SDS011;2107;52.306;10.484;2022-07-05T13:05:02;1.60;;;1.60;;
4186;SDS011;2107;52.306;10.484;2022-07-05T13:07:31;1.60;;;1.60;;
4186;SDS011;2107;52.306;10.484;2022-07-05T13:10:12;1.27;;;1.27;;
4186;SDS011;2107;52.306;10.484;2022-07-05T13:12:40;1.30;;;1.30;;
4186;SDS011;2107;52.306;10.484;2022-07-05T13:15:07;1.27;;;1.27;;
4186;SDS011;2107;52.306;10.484;2022-07-05T13:17:35;1.30;;;1.30;;
4186;SDS011;2107;52.306;10.484;2022-07-05T13:20:02;1.60;;;1.60;;
4186;SDS011;2107;52.306;10.484;2022-07-05T13:22:29;1.30;;;1.30;;
4186;SDS011;2107;52.306;10.484;2022-07-05T13:24:57;1.60;;;1.60;;
4186;SDS011;2107;52.306;10.484;2022-07-05T13:27:24;1.60;;;1.60;;
4186;SDS011;2107;52.306;10.484;2022-07-05T13:29:51;2.20;;;2.20;;
4186;SDS011;2107;52.306;10.484;2022-07-05T13:32:18;1.40;;;1.40;;
4186;SDS011;2107;52.306;10.484;2022-07-05T13:34:46;1.90;;;1.90;;
4186;SDS011;2107;52.306;10.484;2022-07-05T13:37:14;1.60;;;1.60;;
4186;SDS011;2107;52.306;10.484;2022-07-05T13:39:42;1.80;;;1.80;;
4186;SDS011;2107;52.306;10.484;2022-07-05T13:42:09;1.80;;;1.80;;
4186;SDS011;2107;52.306;10.484;2022-07-05T13:44:36;1.70;;;1.70;;
4186;SDS011;2107;52.306;10.484;2022-07-05T13:47:03;1.50;;;1.50;;
4186;SDS011;2107;52.306;10.484;2022-07-05T13:49:31;1.97;;;1.97;;
4186;SDS011;2107;52.306;10.484;2022-07-05T13:51:58;1.73;;;1.73;;
4186;SDS011;2107;52.306;10.484;2022-07-05T13:54:26;1.87;;;1.87;;
4186;SDS011;2107;52.306;10.484;2022-07-05T13:56:54;1.93;;;1.93;;
4186;SDS011;2107;52.306;10.484;2022-07-05T13:59:21;1.40;;;1.40;;
4186;SDS011;2107;52.306;10.484;2022-07-05T14:01:48;1.43;;;1.43;;
4186;SDS011;2107;52.306;10.484;2022-07-05T14:04:15;1.50;;;1.50;;
4186;SDS011;2107;52.306;10.484;2022-07-05T14:06:42;1.40;;;1.40;;
4186;SDS011;2107;52.306;10.484;2022-07-05T14:09:11;1.70;;;1.70;;
4186;SDS011;2107;52.306;10.484;2022-07-05T14:11:38;1.50;;;1.50;;
4186;SDS011;2107;52.306;10.484;2022-07-05T14:14:06;1.70;;;1.70;;
4186;SDS011;2107;52.306;10.484;2022-07-05T14:16:35;1.80;;;1.80;;
4186;SDS011;2107;52.306;10.484;2022-07-05T14:19:02;1.30;;;1.30;;
4186;SDS011;2107;52.306;10.484;2022-07-05T14:21:29;1.50;;;1.50;;
4186;SDS011;2107;52.306;10.484;2022-07-05T14:23:56;2.00;;;2.00;;
4186;SDS011;2107;52.306;10.484;2022-07-05T14:26:23;1.80;;;1.80;;
4186;SDS011;2107;52.306;10.484;2022-07-05T14:28:52;1.60;;;1.60;;
4186;SDS011;2107;52.306;10.484;2022-07-05T14:31:21;1.63;;;1.63;;
4186;SDS011;2107;52.306;10.484;2022-07-05T14:33:48;1.40;;;1.40;;
4186;SDS011;2107;52.306;10.484;2022-07-05T14:36:15;1.30;;;1.30;;
4186;SDS011;2107;52.306;10.484;2022-07-05T14:38:44;1.67;;;1.67;;
4186;SDS011;2107;52.306;10.484;2022-07-05T14:41:11;1.87;;;1.87;;
4186;SDS011;2107;52.306;10.484;2022-07-05T14:43:38;1.60;;;1.60;;
4186;SDS011;2107;52.306;10.484;2022-07-05T14:46:05;1.70;;;1.70;;
4186;SDS011;2107;52.306;10.484;2022-07-05T14:48:38;1.77;;;1.77;;
4186;SDS011;2107;52.306;10.484;2022-07-05T14:51:05;1.70;;;1.70;;
4186;SDS011;2107;52.306;10.484;2022-07-05T14:53:32;1.50;;;1.50;;
4186;SDS011;2107;52.306;10.484;2022-07-05T14:55:59;2.10;;;2.10;;
4186;SDS011;2107;52.306;10.484;2022-07-05T14:58:26;1.40;;;1.40;;
4186;SDS011;2107;52.306;10.484;2022-07-05T15:00:56;1.80;;;1.80;;
4186;SDS011;2107;52.306;10.484;2022-07-05T15:03:23;1.60;;;1.60;;
4186;SDS011;2107;52.306;10.484;2022-07-05T15:05:52;1.70;;;1.70;;
4186;SDS011;2107;52.306;10.484;2022-07-05T15:08:19;1.47;;;1.47;;
4186;SDS011;2107;52.306;10.484;2022-07-05T15:10:46;2.07;;;2.07;;
4186;SDS011;2107;52.306;10.484;2022-07-05T15:13:13;1.80;;;1.80;;
4186;SDS011;2107;52.306;10.484;2022-07-05T15:15:40;1.90;;;1.90;;
4186;SDS011;2107;52.306;10.484;2022-07-05T15:18:07;1.93;;;1.93;;
4186;SDS011;2107;52.306;10.484;2022-07-05T15:20:34;1.80;;;1.80;;
4186;SDS011;2107;52.306;10.484;2022-07-05T15:23:02;2.10;;;2.10;;
4186;SDS011;2107;52.306;10.484;2022-07-05T15:25:29;1.97;;;1.97;;